sensor_id;sensor_type;location;lat;lon;timestamp;temperature;humidity
15426;DHT22;7812;50.072;7.036;2024-01-15T00:00:45;-1.40;99.90
15426;DHT22;7812;50.072;7.036;2024-01-15T00:03:11;-1.70;99.90
15426;DHT22;7812;50.072;7.036;2024-01-15T00:05:37;-1.70;99.90
15426;DHT22;7812;50.072;7.036;2024-01-15T00:08:04;-1.40;99.90
15426;DHT22;7812;50.072;7.036;2024-01-15T00:10:30;-1.60;99.90
15426;DHT22;7812;50.072;7.036;2024-01-15T00:12:55;-1.80;99.90
15426;DHT22;7812;50.072;7.036;2024-01-15T00:15:21;-1.80;99.90
15426;DHT22;7812;50.072;7.036;2024-01-15T00:17:47;-1.80;99.90
15426;DHT22;7812;50.072;7.036;2024-01-15T00:20:14;-1.80;99.90
15426;DHT22;7812;50.072;7.036;2024-01-15T00:22:39;-1.90;99.90
15426;DHT22;7812;50.072;7.036;2024-01-15T00:25:05;-1.80;99.90
15426;DHT22;7812;50.072;7.036;2024-01-15T00:27:32;-1.90;99.90
15426;DHT22;7812;50.072;7.036;2024-01-15T00:29:58;-1.80;99.90
15426;DHT22;7812;50.072;7.036;2024-01-15T00:32:24;-2.00;99.90
15426;DHT22;7812;50.072;7.036;2024-01-15T00:34:50;-1.90;99.90
15426;DHT22;7812;50.072;7.036;2024-01-15T00:37:16;-1.90;99.90
15426;DHT22;7812;50.072;7.036;2024-01-15T00:39:42;-1.90;99.90
15426;DHT22;7812;50.072;7.036;2024-01-15T00:42:08;-1.90;99.90
15426;DHT22;7812;50.072;7.036;2024-01-15T00:44:34;-1.90;99.90
15426;DHT22;7812;50.072;7.036;2024-01-15T00:47:00;-2.00;99.90
15426;DHT22;7812;50.072;7.036;2024-01-15T00:49:27;-1.90;99.90
15426;DHT22;7812;50.072;7.036;2024-01-15T00:51:53;-1.80;99.90
15426;DHT22;7812;50.072;7.036;2024-01-15T00:54:19;-1.90;99.90
15426;DHT22;7812;50.072;7.036;2024-01-15T00:56:45;-1.80;99.90
15426;DHT22;7812;50.072;7.036;2024-01-15T00:59:11;-1.60;99.90
15426;DHT22;7812;50.072;7.036;2024-01-15T01:01:41;-1.60;99.90
15426;DHT22;7812;50.072;7.036;2024-01-15T01:04:09;-1.20;99.90
15426;DHT22;7812;50.072;7.036;2024-01-15T01:06:35;-1.30;99.90
15426;DHT22;7812;50.072;7.036;2024-01-15T01:09:01;-1.10;99.90
15426;DHT22;7812;50.072;7.036;2024-01-15T01:11:27;-1.00;99.90
15426;DHT22;7812;50.072;7.036;2024-01-15T01:13:53;-1.00;99.90
15426;DHT22;7812;50.072;7.036;2024-01-15T01:16:19;-1.10;99.90
15426;DHT22;7812;50.072;7.036;2024-01-15T01:18:45;-1.30;99.90
15426;DHT22;7812;50.072;7.036;2024-01-15T01:21:11;-1.50;99.90
15426;DHT22;7812;50.072;7.036;2024-01-15T01:23:37;-1.70;99.90
15426;DHT22;7812;50.072;7.036;2024-01-15T01:26:03;-1.70;99.90
15426;DHT22;7812;50.072;7.036;2024-01-15T01:28:29;-1.60;99.90
15426;DHT22;7812;50.072;7.036;2024-01-15T01:30:55;-1.70;99.90
15426;DHT22;7812;50.072;7.036;2024-01-15T01:33:20;-1.70;99.90
15426;DHT22;7812;50.072;7.036;2024-01-15T01:35:46;-1.60;99.90
15426;DHT22;7812;50.072;7.036;2024-01-15T01:38:13;-1.60;99.90
15426;DHT22;7812;50.072;7.036;2024-01-15T01:40:39;-1.40;99.90
15426;DHT22;7812;50.072;7.036;2024-01-15T01:43:09;-1.50;99.90
15426;DHT22;7812;50.072;7.036;2024-01-15T01:45:36;-1.40;99.90
15426;DHT22;7812;50.072;7.036;2024-01-15T01:48:02;-1.30;99.90
15426;DHT22;7812;50.072;7.036;2024-01-15T01:50:30;-1.40;99.90
15426;DHT22;7812;50.072;7.036;2024-01-15T01:52:57;-1.30;99.90
15426;DHT22;7812;50.072;7.036;2024-01-15T01:55:25;-1.10;99.90
15426;DHT22;7812;50.072;7.036;2024-01-15T01:57:55;-1.00;99.90
15426;DHT22;7812;50.072;7.036;2024-01-15T02:00:21;-1.10;99.90
15426;DHT22;7812;50.072;7.036;2024-01-15T02:02:47;-1.10;99.90
15426;DHT22;7812;50.072;7.036;2024-01-15T02:05:14;-1.10;99.90
15426;DHT22;7812;50.072;7.036;2024-01-15T02:07:44;-1.20;99.90
15426;DHT22;7812;50.072;7.036;2024-01-15T02:10:10;-1.30;99.90
15426;DHT22;7812;50.072;7.036;2024-01-15T02:12:36;-1.00;99.90
15426;DHT22;7812;50.072;7.036;2024-01-15T02:15:02;-1.20;99.90
15426;DHT22;7812;50.072;7.036;2024-01-15T02:17:28;-1.30;99.90
15426;DHT22;7812;50.072;7.036;2024-01-15T02:19:54;-1.40;99.90
15426;DHT22;7812;50.072;7.036;2024-01-15T02:22:20;-1.50;99.90
15426;DHT22;7812;50.072;7.036;2024-01-15T02:24:46;-1.50;99.90
15426;DHT22;7812;50.072;7.036;2024-01-15T02:27:12;-1.40;99.90
15426;DHT22;7812;50.072;7.036;2024-01-15T02:29:39;-1.50;99.90
15426;DHT22;7812;50.072;7.036;2024-01-15T02:32:05;-1.50;99.90
15426;DHT22;7812;50.072;7.036;2024-01-15T02:34:32;-1.40;99.90
15426;DHT22;7812;50.072;7.036;2024-01-15T02:36:58;-1.30;99.90
15426;DHT22;7812;50.072;7.036;2024-01-15T02:39:24;-0.90;99.90
15426;DHT22;7812;50.072;7.036;2024-01-15T02:41:50;-0.80;99.90
15426;DHT22;7812;50.072;7.036;2024-01-15T02:44:16;-1.20;99.90
15426;DHT22;7812;50.072;7.036;2024-01-15T02:46:42;-1.30;99.90
15426;DHT22;7812;50.072;7.036;2024-01-15T02:49:11;-1.40;99.90
15426;DHT22;7812;50.072;7.036;2024-01-15T02:51:36;-1.40;99.90
15426;DHT22;7812;50.072;7.036;2024-01-15T02:54:02;-1.40;99.90
15426;DHT22;7812;50.072;7.036;2024-01-15T02:56:28;-1.50;99.90
15426;DHT22;7812;50.072;7.036;2024-01-15T02:58:54;-1.40;99.90
15426;DHT22;7812;50.072;7.036;2024-01-15T03:01:20;-1.20;99.90
15426;DHT22;7812;50.072;7.036;2024-01-15T03:03:46;-1.20;99.90
15426;DHT22;7812;50.072;7.036;2024-01-15T03:06:12;-1.20;99.90
15426;DHT22;7812;50.072;7.036;2024-01-15T03:08:37;-1.20;99.90
15426;DHT22;7812;50.072;7.036;2024-01-15T03:11:03;-1.20;99.90
15426;DHT22;7812;50.072;7.036;2024-01-15T03:13:29;-1.20;99.90
15426;DHT22;7812;50.072;7.036;2024-01-15T03:15:55;-1.20;99.90
15426;DHT22;7812;50.072;7.036;2024-01-15T03:18:21;-1.10;99.90
15426;DHT22;7812;50.072;7.036;2024-01-15T03:20:47;-1.10;99.90
15426;DHT22;7812;50.072;7.036;2024-01-15T03:23:13;-0.90;99.90
15426;DHT22;7812;50.072;7.036;2024-01-15T03:25:39;-1.00;99.90
15426;DHT22;7812;50.072;7.036;2024-01-15T03:28:05;-1.00;99.90
15426;DHT22;7812;50.072;7.036;2024-01-15T03:30:31;-0.80;99.90
15426;DHT22;7812;50.072;7.036;2024-01-15T03:32:57;-0.90;99.90
15426;DHT22;7812;50.072;7.036;2024-01-15T03:35:23;-1.00;99.90
15426;DHT22;7812;50.072;7.036;2024-01-15T03:37:55;-1.00;99.90
15426;DHT22;7812;50.072;7.036;2024-01-15T03:40:21;-1.00;99.90
15426;DHT22;7812;50.072;7.036;2024-01-15T03:42:47;-1.10;99.90
15426;DHT22;7812;50.072;7.036;2024-01-15T03:45:13;-1.10;99.90
15426;DHT22;7812;50.072;7.036;2024-01-15T03:47:39;-1.00;99.90
15426;DHT22;7812;50.072;7.036;2024-01-15T03:50:05;-0.90;99.90
15426;DHT22;7812;50.072;7.036;2024-01-15T03:52:31;-0.90;99.90
15426;DHT22;7812;50.072;7.036;2024-01-15T03:54:58;-0.80;99.90
15426;DHT22;7812;50.072;7.036;2024-01-15T03:57:23;-0.90;99.90
15426;DHT22;7812;50.072;7.036;2024-01-15T03:59:49;-0.80;99.90
15426;DHT22;7812;50.072;7.036;2024-01-15T04:02:15;-0.70;99.90
15426;DHT22;7812;50.072;7.036;2024-01-15T04:04:43;-0.80;99.90
15426;DHT22;7812;50.072;7.036;2024-01-15T04:07:09;-0.90;99.90
15426;DHT22;7812;50.072;7.036;2024-01-15T04:09:35;-1.00;99.90
15426;DHT22;7812;50.072;7.036;2024-01-15T04:12:01;-1.10;99.90
15426;DHT22;7812;50.072;7.036;2024-01-15T04:14:27;-1.20;99.90
15426;DHT22;7812;50.072;7.036;2024-01-15T04:16:54;-1.20;99.90
15426;DHT22;7812;50.072;7.036;2024-01-15T04:19:20;-1.10;99.90
15426;DHT22;7812;50.072;7.036;2024-01-15T04:21:46;-1.10;99.90
15426;DHT22;7812;50.072;7.036;2024-01-15T04:24:12;-1.00;99.90
15426;DHT22;7812;50.072;7.036;2024-01-15T04:26:37;-0.90;99.90
15426;DHT22;7812;50.072;7.036;2024-01-15T04:29:03;-0.80;99.90
15426;DHT22;7812;50.072;7.036;2024-01-15T04:31:29;-0.70;99.90
15426;DHT22;7812;50.072;7.036;2024-01-15T04:33:55;-0.60;99.90
15426;DHT22;7812;50.072;7.036;2024-01-15T04:36:21;-0.60;99.90
15426;DHT22;7812;50.072;7.036;2024-01-15T04:38:47;-0.50;99.90
15426;DHT22;7812;50.072;7.036;2024-01-15T04:41:13;-0.30;99.90
15426;DHT22;7812;50.072;7.036;2024-01-15T04:43:39;-0.40;99.90
15426;DHT22;7812;50.072;7.036;2024-01-15T04:46:06;-0.50;99.90
15426;DHT22;7812;50.072;7.036;2024-01-15T04:48:33;-0.50;99.90
15426;DHT22;7812;50.072;7.036;2024-01-15T04:50:59;-0.50;99.90
15426;DHT22;7812;50.072;7.036;2024-01-15T04:53:25;-0.30;99.90
15426;DHT22;7812;50.072;7.036;2024-01-15T04:55:51;-0.10;99.90
15426;DHT22;7812;50.072;7.036;2024-01-15T04:58:17;-0.10;99.90
15426;DHT22;7812;50.072;7.036;2024-01-15T05:00:43;-0.20;99.90
15426;DHT22;7812;50.072;7.036;2024-01-15T05:03:09;-0.30;99.90
15426;DHT22;7812;50.072;7.036;2024-01-15T05:05:35;-0.40;99.90
15426;DHT22;7812;50.072;7.036;2024-01-15T05:08:01;-0.40;99.90
15426;DHT22;7812;50.072;7.036;2024-01-15T05:10:26;-0.40;99.90
15426;DHT22;7812;50.072;7.036;2024-01-15T05:12:52;-0.30;99.90
15426;DHT22;7812;50.072;7.036;2024-01-15T05:15:18;-0.30;99.90
15426;DHT22;7812;50.072;7.036;2024-01-15T05:17:45;-0.60;99.90
15426;DHT22;7812;50.072;7.036;2024-01-15T05:20:11;-0.40;99.90
15426;DHT22;7812;50.072;7.036;2024-01-15T05:22:37;-0.20;99.90
15426;DHT22;7812;50.072;7.036;2024-01-15T05:25:03;-0.30;99.90
15426;DHT22;7812;50.072;7.036;2024-01-15T05:27:29;-0.40;99.90
15426;DHT22;7812;50.072;7.036;2024-01-15T05:29:55;-0.40;99.90
15426;DHT22;7812;50.072;7.036;2024-01-15T05:32:20;-0.40;99.90
15426;DHT22;7812;50.072;7.036;2024-01-15T05:34:46;-0.40;99.90
15426;DHT22;7812;50.072;7.036;2024-01-15T05:37:12;-0.40;99.90
15426;DHT22;7812;50.072;7.036;2024-01-15T05:39:38;-0.50;99.90
15426;DHT22;7812;50.072;7.036;2024-01-15T05:42:04;-0.50;99.90
15426;DHT22;7812;50.072;7.036;2024-01-15T05:44:30;-0.50;99.90
15426;DHT22;7812;50.072;7.036;2024-01-15T05:46:56;-0.50;99.90
15426;DHT22;7812;50.072;7.036;2024-01-15T05:49:22;-0.50;99.90
15426;DHT22;7812;50.072;7.036;2024-01-15T05:51:48;-0.60;99.90
15426;DHT22;7812;50.072;7.036;2024-01-15T05:54:13;-0.50;99.90
15426;DHT22;7812;50.072;7.036;2024-01-15T05:56:39;-0.40;99.90
15426;DHT22;7812;50.072;7.036;2024-01-15T05:59:05;-0.40;99.90
15426;DHT22;7812;50.072;7.036;2024-01-15T06:01:31;-0.40;99.90
15426;DHT22;7812;50.072;7.036;2024-01-15T06:03:57;-0.30;99.90
15426;DHT22;7812;50.072;7.036;2024-01-15T06:06:23;-0.30;99.90
15426;DHT22;7812;50.072;7.036;2024-01-15T06:08:49;-0.20;99.90
15426;DHT22;7812;50.072;7.036;2024-01-15T06:11:15;-0.10;99.90
15426;DHT22;7812;50.072;7.036;2024-01-15T06:13:41;-0.10;99.90
15426;DHT22;7812;50.072;7.036;2024-01-15T06:16:16;0.00;99.90
15426;DHT22;7812;50.072;7.036;2024-01-15T06:18:42;0.10;99.90
15426;DHT22;7812;50.072;7.036;2024-01-15T06:21:08;-0.10;99.90
15426;DHT22;7812;50.072;7.036;2024-01-15T06:23:37;-0.20;99.90
15426;DHT22;7812;50.072;7.036;2024-01-15T06:26:03;-0.30;99.90
15426;DHT22;7812;50.072;7.036;2024-01-15T06:28:29;-0.40;99.90
15426;DHT22;7812;50.072;7.036;2024-01-15T06:30:55;-0.40;99.90
15426;DHT22;7812;50.072;7.036;2024-01-15T06:33:21;-0.20;99.90
15426;DHT22;7812;50.072;7.036;2024-01-15T06:35:46;-0.20;99.90
15426;DHT22;7812;50.072;7.036;2024-01-15T06:38:13;0.00;99.90
15426;DHT22;7812;50.072;7.036;2024-01-15T06:40:39;-0.10;99.90
15426;DHT22;7812;50.072;7.036;2024-01-15T06:43:07;-0.10;99.90
15426;DHT22;7812;50.072;7.036;2024-01-15T06:45:33;-0.20;99.90
15426;DHT22;7812;50.072;7.036;2024-01-15T06:47:58;-0.30;99.90
15426;DHT22;7812;50.072;7.036;2024-01-15T06:50:24;-0.30;99.90
15426;DHT22;7812;50.072;7.036;2024-01-15T06:52:50;-0.10;99.90
15426;DHT22;7812;50.072;7.036;2024-01-15T06:55:16;-0.20;99.90
15426;DHT22;7812;50.072;7.036;2024-01-15T06:57:43;-0.10;99.90
15426;DHT22;7812;50.072;7.036;2024-01-15T07:00:09;-0.10;99.90
15426;DHT22;7812;50.072;7.036;2024-01-15T07:02:35;-0.20;99.90
15426;DHT22;7812;50.072;7.036;2024-01-15T07:05:01;-0.10;99.90
15426;DHT22;7812;50.072;7.036;2024-01-15T07:07:27;0.00;99.90
15426;DHT22;7812;50.072;7.036;2024-01-15T07:09:55;0.10;99.90
15426;DHT22;7812;50.072;7.036;2024-01-15T07:12:20;0.00;99.90
15426;DHT22;7812;50.072;7.036;2024-01-15T07:14:46;0.10;99.90
15426;DHT22;7812;50.072;7.036;2024-01-15T07:17:13;0.00;99.90
15426;DHT22;7812;50.072;7.036;2024-01-15T07:19:39;0.00;99.90
15426;DHT22;7812;50.072;7.036;2024-01-15T07:22:04;0.20;99.90
15426;DHT22;7812;50.072;7.036;2024-01-15T07:24:30;0.20;99.90
15426;DHT22;7812;50.072;7.036;2024-01-15T07:26:56;0.20;99.90
15426;DHT22;7812;50.072;7.036;2024-01-15T07:29:22;0.30;99.90
15426;DHT22;7812;50.072;7.036;2024-01-15T07:31:51;0.40;99.90
15426;DHT22;7812;50.072;7.036;2024-01-15T07:34:17;0.30;99.90
15426;DHT22;7812;50.072;7.036;2024-01-15T07:36:46;0.20;99.90
15426;DHT22;7812;50.072;7.036;2024-01-15T07:39:12;0.20;99.90
15426;DHT22;7812;50.072;7.036;2024-01-15T07:41:39;0.10;99.90
15426;DHT22;7812;50.072;7.036;2024-01-15T07:44:05;0.00;99.90
15426;DHT22;7812;50.072;7.036;2024-01-15T07:46:31;0.10;99.90
15426;DHT22;7812;50.072;7.036;2024-01-15T07:48:57;0.10;99.90
15426;DHT22;7812;50.072;7.036;2024-01-15T07:51:26;-0.10;99.90
15426;DHT22;7812;50.072;7.036;2024-01-15T07:53:55;-0.20;99.90
15426;DHT22;7812;50.072;7.036;2024-01-15T07:56:21;-0.10;99.90
15426;DHT22;7812;50.072;7.036;2024-01-15T07:58:47;-0.10;99.90
15426;DHT22;7812;50.072;7.036;2024-01-15T08:01:13;-0.10;99.90
15426;DHT22;7812;50.072;7.036;2024-01-15T08:03:39;-0.20;99.90
15426;DHT22;7812;50.072;7.036;2024-01-15T08:06:05;-0.20;99.90
15426;DHT22;7812;50.072;7.036;2024-01-15T08:08:31;-0.20;99.90
15426;DHT22;7812;50.072;7.036;2024-01-15T08:10:57;-0.20;99.90
15426;DHT22;7812;50.072;7.036;2024-01-15T08:13:23;-0.20;99.90
15426;DHT22;7812;50.072;7.036;2024-01-15T08:15:51;-0.30;99.90
15426;DHT22;7812;50.072;7.036;2024-01-15T08:18:17;-0.30;99.90
15426;DHT22;7812;50.072;7.036;2024-01-15T08:20:44;-0.20;99.90
15426;DHT22;7812;50.072;7.036;2024-01-15T08:23:09;-0.10;99.90
15426;DHT22;7812;50.072;7.036;2024-01-15T08:25:35;-0.10;99.90
15426;DHT22;7812;50.072;7.036;2024-01-15T08:28:01;-0.10;99.90
15426;DHT22;7812;50.072;7.036;2024-01-15T08:30:27;0.00;99.90
15426;DHT22;7812;50.072;7.036;2024-01-15T08:32:56;0.00;99.90
15426;DHT22;7812;50.072;7.036;2024-01-15T08:35:22;0.00;99.90
15426;DHT22;7812;50.072;7.036;2024-01-15T08:37:52;0.00;99.90
15426;DHT22;7812;50.072;7.036;2024-01-15T08:40:18;-0.10;99.90
15426;DHT22;7812;50.072;7.036;2024-01-15T08:42:44;-0.10;99.90
15426;DHT22;7812;50.072;7.036;2024-01-15T08:45:11;0.00;99.90
15426;DHT22;7812;50.072;7.036;2024-01-15T08:47:37;0.00;99.90
15426;DHT22;7812;50.072;7.036;2024-01-15T08:50:03;0.00;99.90
15426;DHT22;7812;50.072;7.036;2024-01-15T08:52:29;0.00;99.90
15426;DHT22;7812;50.072;7.036;2024-01-15T08:54:58;-0.10;99.90
15426;DHT22;7812;50.072;7.036;2024-01-15T08:57:24;0.00;99.90
15426;DHT22;7812;50.072;7.036;2024-01-15T08:59:50;0.10;99.90
15426;DHT22;7812;50.072;7.036;2024-01-15T09:02:16;0.10;99.90
15426;DHT22;7812;50.072;7.036;2024-01-15T09:04:42;0.30;99.90
15426;DHT22;7812;50.072;7.036;2024-01-15T09:07:08;0.30;99.90
15426;DHT22;7812;50.072;7.036;2024-01-15T09:09:34;0.40;99.90
15426;DHT22;7812;50.072;7.036;2024-01-15T09:12:00;0.50;99.90
15426;DHT22;7812;50.072;7.036;2024-01-15T09:14:26;0.40;99.90
15426;DHT22;7812;50.072;7.036;2024-01-15T09:16:53;0.40;99.90
15426;DHT22;7812;50.072;7.036;2024-01-15T09:19:19;0.60;99.90
15426;DHT22;7812;50.072;7.036;2024-01-15T09:21:45;0.70;99.90
15426;DHT22;7812;50.072;7.036;2024-01-15T09:24:11;0.60;99.90
15426;DHT22;7812;50.072;7.036;2024-01-15T09:26:37;0.50;99.90
15426;DHT22;7812;50.072;7.036;2024-01-15T09:29:03;0.50;99.90
15426;DHT22;7812;50.072;7.036;2024-01-15T09:31:28;0.70;99.90
15426;DHT22;7812;50.072;7.036;2024-01-15T09:33:55;0.70;99.90
15426;DHT22;7812;50.072;7.036;2024-01-15T09:36:22;0.70;99.90
15426;DHT22;7812;50.072;7.036;2024-01-15T09:38:48;0.60;99.90
15426;DHT22;7812;50.072;7.036;2024-01-15T09:41:15;0.60;99.90
15426;DHT22;7812;50.072;7.036;2024-01-15T09:43:41;0.70;99.90
15426;DHT22;7812;50.072;7.036;2024-01-15T09:46:08;0.60;99.90
15426;DHT22;7812;50.072;7.036;2024-01-15T09:48:34;0.50;99.90
15426;DHT22;7812;50.072;7.036;2024-01-15T09:51:01;0.40;99.90
15426;DHT22;7812;50.072;7.036;2024-01-15T09:53:27;0.40;99.90
15426;DHT22;7812;50.072;7.036;2024-01-15T09:55:53;0.50;99.90
15426;DHT22;7812;50.072;7.036;2024-01-15T09:58:19;0.50;99.90
15426;DHT22;7812;50.072;7.036;2024-01-15T10:00:47;0.50;99.90
15426;DHT22;7812;50.072;7.036;2024-01-15T10:03:15;0.60;99.90
15426;DHT22;7812;50.072;7.036;2024-01-15T10:05:42;0.60;99.90
15426;DHT22;7812;50.072;7.036;2024-01-15T10:08:09;0.50;99.90
15426;DHT22;7812;50.072;7.036;2024-01-15T10:10:36;0.50;99.90
15426;DHT22;7812;50.072;7.036;2024-01-15T10:13:04;0.60;99.90
15426;DHT22;7812;50.072;7.036;2024-01-15T10:15:34;0.70;99.90
15426;DHT22;7812;50.072;7.036;2024-01-15T10:18:02;1.10;99.90
15426;DHT22;7812;50.072;7.036;2024-01-15T10:20:28;1.30;99.90
15426;DHT22;7812;50.072;7.036;2024-01-15T10:22:55;1.20;99.90
15426;DHT22;7812;50.072;7.036;2024-01-15T10:25:21;1.50;99.90
15426;DHT22;7812;50.072;7.036;2024-01-15T10:28:09;1.50;99.90
15426;DHT22;7812;50.072;7.036;2024-01-15T10:30:35;1.40;99.90
15426;DHT22;7812;50.072;7.036;2024-01-15T10:33:02;1.50;99.90
15426;DHT22;7812;50.072;7.036;2024-01-15T10:35:32;1.30;99.90
15426;DHT22;7812;50.072;7.036;2024-01-15T10:38:01;1.20;99.90
15426;DHT22;7812;50.072;7.036;2024-01-15T10:40:29;1.10;99.90
15426;DHT22;7812;50.072;7.036;2024-01-15T10:42:55;1.20;99.90
15426;DHT22;7812;50.072;7.036;2024-01-15T10:45:20;1.30;99.90
15426;DHT22;7812;50.072;7.036;2024-01-15T10:47:46;1.40;99.90
15426;DHT22;7812;50.072;7.036;2024-01-15T10:50:14;1.50;99.90
15426;DHT22;7812;50.072;7.036;2024-01-15T10:52:41;1.30;99.90
15426;DHT22;7812;50.072;7.036;2024-01-15T10:55:09;1.20;99.90
15426;DHT22;7812;50.072;7.036;2024-01-15T10:57:35;1.20;99.90
15426;DHT22;7812;50.072;7.036;2024-01-15T11:00:02;1.20;99.90
15426;DHT22;7812;50.072;7.036;2024-01-15T11:02:35;1.00;99.90
15426;DHT22;7812;50.072;7.036;2024-01-15T11:05:01;0.90;99.90
15426;DHT22;7812;50.072;7.036;2024-01-15T11:07:27;0.90;99.90
15426;DHT22;7812;50.072;7.036;2024-01-15T11:09:55;0.90;99.90
15426;DHT22;7812;50.072;7.036;2024-01-15T11:12:20;1.00;99.90
15426;DHT22;7812;50.072;7.036;2024-01-15T11:14:47;1.20;99.90
15426;DHT22;7812;50.072;7.036;2024-01-15T11:17:15;1.40;99.90
15426;DHT22;7812;50.072;7.036;2024-01-15T11:19:44;1.60;99.90
15426;DHT22;7812;50.072;7.036;2024-01-15T11:25:02;1.90;99.90
15426;DHT22;7812;50.072;7.036;2024-01-15T11:27:45;2.40;99.90
15426;DHT22;7812;50.072;7.036;2024-01-15T11:30:13;2.90;99.90
15426;DHT22;7812;50.072;7.036;2024-01-15T11:32:40;2.40;99.90
15426;DHT22;7812;50.072;7.036;2024-01-15T11:35:13;2.30;99.90
15426;DHT22;7812;50.072;7.036;2024-01-15T11:40:21;2.30;99.90
15426;DHT22;7812;50.072;7.036;2024-01-15T11:42:48;2.20;99.90
15426;DHT22;7812;50.072;7.036;2024-01-15T11:45:21;1.90;99.90
15426;DHT22;7812;50.072;7.036;2024-01-15T11:48:10;1.70;99.90
15426;DHT22;7812;50.072;7.036;2024-01-15T11:50:48;1.60;99.90
15426;DHT22;7812;50.072;7.036;2024-01-15T11:53:24;1.60;99.90
15426;DHT22;7812;50.072;7.036;2024-01-15T11:55:52;1.60;99.90
15426;DHT22;7812;50.072;7.036;2024-01-15T11:58:23;1.70;99.90
15426;DHT22;7812;50.072;7.036;2024-01-15T12:00:51;1.80;99.90
15426;DHT22;7812;50.072;7.036;2024-01-15T12:03:20;1.80;99.90
15426;DHT22;7812;50.072;7.036;2024-01-15T12:05:46;1.80;99.90
15426;DHT22;7812;50.072;7.036;2024-01-15T12:08:11;1.80;99.90
15426;DHT22;7812;50.072;7.036;2024-01-15T12:10:38;1.80;99.90
15426;DHT22;7812;50.072;7.036;2024-01-15T12:15:35;1.90;99.90
15426;DHT22;7812;50.072;7.036;2024-01-15T12:18:02;2.00;99.90
15426;DHT22;7812;50.072;7.036;2024-01-15T12:20:29;2.10;99.90
15426;DHT22;7812;50.072;7.036;2024-01-15T12:22:55;2.10;99.90
15426;DHT22;7812;50.072;7.036;2024-01-15T12:25:25;2.30;99.90
15426;DHT22;7812;50.072;7.036;2024-01-15T12:27:55;2.30;99.90
15426;DHT22;7812;50.072;7.036;2024-01-15T12:30:21;2.30;99.90
15426;DHT22;7812;50.072;7.036;2024-01-15T12:32:47;2.30;99.90
15426;DHT22;7812;50.072;7.036;2024-01-15T12:35:14;2.30;99.90
15426;DHT22;7812;50.072;7.036;2024-01-15T12:37:41;2.10;99.90
15426;DHT22;7812;50.072;7.036;2024-01-15T12:40:08;2.00;99.90
15426;DHT22;7812;50.072;7.036;2024-01-15T12:42:40;2.00;99.90
15426;DHT22;7812;50.072;7.036;2024-01-15T12:45:08;2.00;99.90
15426;DHT22;7812;50.072;7.036;2024-01-15T12:47:35;2.10;99.90
15426;DHT22;7812;50.072;7.036;2024-01-15T12:50:01;2.10;99.90
15426;DHT22;7812;50.072;7.036;2024-01-15T12:52:29;2.20;99.90
15426;DHT22;7812;50.072;7.036;2024-01-15T12:54:55;2.20;99.90
15426;DHT22;7812;50.072;7.036;2024-01-15T12:57:21;2.10;99.90
15426;DHT22;7812;50.072;7.036;2024-01-15T12:59:47;2.10;99.90
15426;DHT22;7812;50.072;7.036;2024-01-15T13:02:13;2.20;99.90
15426;DHT22;7812;50.072;7.036;2024-01-15T13:04:40;2.20;99.90
15426;DHT22;7812;50.072;7.036;2024-01-15T13:07:06;2.00;99.90
15426;DHT22;7812;50.072;7.036;2024-01-15T13:09:33;2.10;99.90
15426;DHT22;7812;50.072;7.036;2024-01-15T13:12:00;2.10;99.90
15426;DHT22;7812;50.072;7.036;2024-01-15T13:14:27;2.20;99.90
15426;DHT22;7812;50.072;7.036;2024-01-15T13:16:53;2.30;99.90
15426;DHT22;7812;50.072;7.036;2024-01-15T13:19:20;2.20;99.90
15426;DHT22;7812;50.072;7.036;2024-01-15T13:21:47;2.10;99.90
15426;DHT22;7812;50.072;7.036;2024-01-15T13:24:13;2.00;99.90
15426;DHT22;7812;50.072;7.036;2024-01-15T13:26:39;1.90;99.90
15426;DHT22;7812;50.072;7.036;2024-01-15T13:29:06;2.00;99.90
15426;DHT22;7812;50.072;7.036;2024-01-15T13:31:35;2.10;99.90
15426;DHT22;7812;50.072;7.036;2024-01-15T13:34:01;2.30;99.90
15426;DHT22;7812;50.072;7.036;2024-01-15T13:36:27;2.50;99.90
15426;DHT22;7812;50.072;7.036;2024-01-15T13:38:53;2.40;99.90
15426;DHT22;7812;50.072;7.036;2024-01-15T13:41:20;2.40;99.90
15426;DHT22;7812;50.072;7.036;2024-01-15T13:44:04;2.30;99.90
15426;DHT22;7812;50.072;7.036;2024-01-15T13:46:30;2.50;99.90
15426;DHT22;7812;50.072;7.036;2024-01-15T13:48:56;2.30;99.90
15426;DHT22;7812;50.072;7.036;2024-01-15T13:51:23;2.30;99.90
15426;DHT22;7812;50.072;7.036;2024-01-15T13:53:49;2.20;99.90
15426;DHT22;7812;50.072;7.036;2024-01-15T13:56:16;2.20;99.90
15426;DHT22;7812;50.072;7.036;2024-01-15T13:58:42;2.40;99.90
15426;DHT22;7812;50.072;7.036;2024-01-15T14:01:09;2.40;99.90
15426;DHT22;7812;50.072;7.036;2024-01-15T14:03:35;2.40;99.90
15426;DHT22;7812;50.072;7.036;2024-01-15T14:06:01;2.40;99.90
15426;DHT22;7812;50.072;7.036;2024-01-15T14:08:37;2.50;99.90
15426;DHT22;7812;50.072;7.036;2024-01-15T14:11:03;2.60;99.90
15426;DHT22;7812;50.072;7.036;2024-01-15T14:13:31;2.50;99.90
15426;DHT22;7812;50.072;7.036;2024-01-15T14:15:57;2.50;99.90
15426;DHT22;7812;50.072;7.036;2024-01-15T14:18:23;2.60;99.90
15426;DHT22;7812;50.072;7.036;2024-01-15T14:20:52;2.60;99.90
15426;DHT22;7812;50.072;7.036;2024-01-15T14:23:21;2.70;99.90
15426;DHT22;7812;50.072;7.036;2024-01-15T14:25:47;2.80;99.90
15426;DHT22;7812;50.072;7.036;2024-01-15T14:28:14;2.70;99.90
15426;DHT22;7812;50.072;7.036;2024-01-15T14:30:40;2.60;99.90
15426;DHT22;7812;50.072;7.036;2024-01-15T14:33:05;2.50;99.90
15426;DHT22;7812;50.072;7.036;2024-01-15T14:35:31;2.50;99.90
15426;DHT22;7812;50.072;7.036;2024-01-15T14:37:57;2.50;99.90
15426;DHT22;7812;50.072;7.036;2024-01-15T14:40:25;2.20;99.90
15426;DHT22;7812;50.072;7.036;2024-01-15T14:42:50;2.10;99.90
15426;DHT22;7812;50.072;7.036;2024-01-15T14:45:17;2.10;99.90
15426;DHT22;7812;50.072;7.036;2024-01-15T14:47:42;2.20;99.90
15426;DHT22;7812;50.072;7.036;2024-01-15T14:50:09;2.30;99.90
15426;DHT22;7812;50.072;7.036;2024-01-15T14:52:36;2.30;99.90
15426;DHT22;7812;50.072;7.036;2024-01-15T14:55:02;2.20;99.90
15426;DHT22;7812;50.072;7.036;2024-01-15T14:57:28;2.20;99.90
15426;DHT22;7812;50.072;7.036;2024-01-15T14:59:54;2.20;99.90
15426;DHT22;7812;50.072;7.036;2024-01-15T15:02:20;2.20;99.90
15426;DHT22;7812;50.072;7.036;2024-01-15T15:04:46;2.30;99.90
15426;DHT22;7812;50.072;7.036;2024-01-15T15:07:12;2.10;99.90
15426;DHT22;7812;50.072;7.036;2024-01-15T15:09:38;2.10;99.90
15426;DHT22;7812;50.072;7.036;2024-01-15T15:12:05;2.20;99.90
15426;DHT22;7812;50.072;7.036;2024-01-15T15:14:31;2.10;99.90
15426;DHT22;7812;50.072;7.036;2024-01-15T15:17:06;2.10;99.90
15426;DHT22;7812;50.072;7.036;2024-01-15T15:19:34;2.10;99.90
15426;DHT22;7812;50.072;7.036;2024-01-15T15:22:01;2.20;99.90
15426;DHT22;7812;50.072;7.036;2024-01-15T15:24:27;2.00;99.90
15426;DHT22;7812;50.072;7.036;2024-01-15T15:26:53;2.00;99.90
15426;DHT22;7812;50.072;7.036;2024-01-15T15:29:18;1.90;99.90
15426;DHT22;7812;50.072;7.036;2024-01-15T15:31:44;1.90;99.90
15426;DHT22;7812;50.072;7.036;2024-01-15T15:34:10;2.00;99.90
15426;DHT22;7812;50.072;7.036;2024-01-15T15:36:35;2.00;99.90
15426;DHT22;7812;50.072;7.036;2024-01-15T15:39:01;2.00;99.90
15426;DHT22;7812;50.072;7.036;2024-01-15T15:41:27;2.00;99.90
15426;DHT22;7812;50.072;7.036;2024-01-15T15:43:56;2.00;99.90
15426;DHT22;7812;50.072;7.036;2024-01-15T15:46:21;2.00;99.90
15426;DHT22;7812;50.072;7.036;2024-01-15T15:48:47;1.90;99.90
15426;DHT22;7812;50.072;7.036;2024-01-15T15:51:13;1.90;99.90
15426;DHT22;7812;50.072;7.036;2024-01-15T15:53:39;1.80;99.90
15426;DHT22;7812;50.072;7.036;2024-01-15T15:56:05;1.70;99.90
15426;DHT22;7812;50.072;7.036;2024-01-15T15:58:32;1.60;99.90